sensor_id;sensor_type;location;lat;lon;timestamp;P1;durP1;ratioP1;P2;durP2;ratioP2
23123;SDS011;11731;48.592;8.858;2022-07-06T00:01:55;3.47;;;2.00;;
23123;SDS011;11731;48.592;8.858;2022-07-06T00:04:22;2.40;;;2.20;;
23123;SDS011;11731;48.592;8.858;2022-07-06T00:07:02;2.33;;;1.93;;
23123;SDS011;11731;48.592;8.858;2022-07-06T00:09:29;2.63;;;2.10;;
23123;SDS011;11731;48.592;8.858;2022-07-06T00:11:56;3.93;;;2.17;;
23123;SDS011;11731;48.592;8.858;2022-07-06T00:14:23;2.30;;;2.10;;
23123;SDS011;11731;48.592;8.858;2022-07-06T00:16:51;2.10;;;1.90;;
23123;SDS011;11731;48.592;8.858;2022-07-06T00:19:18;2.07;;;1.80;;
23123;SDS011;11731;48.592;8.858;2022-07-06T00:21:44;3.03;;;2.17;;
23123;SDS011;11731;48.592;8.858;2022-07-06T00:24:11;3.00;;;2.07;;
23123;SDS011;11731;48.592;8.858;2022-07-06T00:26:38;2.37;;;2.07;;
23123;SDS011;11731;48.592;8.858;2022-07-06T00:29:25;2.43;;;2.13;;
23123;SDS011;11731;48.592;8.858;2022-07-06T00:31:53;2.60;;;2.40;;
23123;SDS011;11731;48.592;8.858;2022-07-06T00:34:20;2.70;;;1.93;;
23123;SDS011;11731;48.592;8.858;2022-07-06T00:36:47;2.80;;;2.10;;
23123;SDS011;11731;48.592;8.858;2022-07-06T00:39:13;3.47;;;1.87;;
23123;SDS011;11731;48.592;8.858;2022-07-06T00:41:40;4.80;;;2.10;;
23123;SDS011;11731;48.592;8.858;2022-07-06T00:44:07;2.40;;;2.20;;
23123;SDS011;11731;48.592;8.858;2022-07-06T00:46:35;4.33;;;2.23;;
23123;SDS011;11731;48.592;8.858;2022-07-06T00:49:03;2.27;;;2.07;;
23123;SDS011;11731;48.592;8.858;2022-07-06T00:51:30;3.63;;;2.00;;
23123;SDS011;11731;48.592;8.858;2022-07-06T00:54:02;2.57;;;1.80;;
23123;SDS011;11731;48.592;8.858;2022-07-06T00:56:30;2.40;;;2.20;;
23123;SDS011;11731;48.592;8.858;2022-07-06T00:58:59;3.33;;;2.27;;
23123;SDS011;11731;48.592;8.858;2022-07-06T01:02:29;2.07;;;1.67;;
23123;SDS011;11731;48.592;8.858;2022-07-06T01:04:36;2.70;;;1.97;;
23123;SDS011;11731;48.592;8.858;2022-07-06T01:07:06;3.57;;;2.10;;
23123;SDS011;11731;48.592;8.858;2022-07-06T01:09:33;5.40;;;2.23;;
23123;SDS011;11731;48.592;8.858;2022-07-06T01:12:00;5.10;;;2.10;;
23123;SDS011;11731;48.592;8.858;2022-07-06T01:14:26;4.60;;;2.03;;
23123;SDS011;11731;48.592;8.858;2022-07-06T01:16:53;2.90;;;1.63;;
23123;SDS011;11731;48.592;8.858;2022-07-06T01:19:20;2.67;;;1.87;;
23123;SDS011;11731;48.592;8.858;2022-07-06T01:21:49;3.17;;;1.97;;
23123;SDS011;11731;48.592;8.858;2022-07-06T01:24:15;2.93;;;1.80;;
23123;SDS011;11731;48.592;8.858;2022-07-06T01:26:42;3.97;;;2.03;;
23123;SDS011;11731;48.592;8.858;2022-07-06T01:29:09;2.27;;;1.80;;
23123;SDS011;11731;48.592;8.858;2022-07-06T01:31:44;3.17;;;1.60;;
23123;SDS011;11731;48.592;8.858;2022-07-06T01:34:13;1.63;;;1.53;;
23123;SDS011;11731;48.592;8.858;2022-07-06T01:36:40;2.10;;;1.90;;
23123;SDS011;11731;48.592;8.858;2022-07-06T01:39:08;2.27;;;1.90;;
23123;SDS011;11731;48.592;8.858;2022-07-06T01:41:36;3.57;;;1.80;;
23123;SDS011;11731;48.592;8.858;2022-07-06T01:44:05;2.10;;;1.90;;
23123;SDS011;11731;48.592;8.858;2022-07-06T01:46:32;3.13;;;2.00;;
23123;SDS011;11731;48.592;8.858;2022-07-06T01:48:59;3.37;;;2.13;;
23123;SDS011;11731;48.592;8.858;2022-07-06T01:51:26;1.90;;;1.70;;
23123;SDS011;11731;48.592;8.858;2022-07-06T01:53:53;3.87;;;1.90;;
23123;SDS011;11731;48.592;8.858;2022-07-06T01:56:21;3.60;;;2.03;;
23123;SDS011;11731;48.592;8.858;2022-07-06T01:58:48;3.07;;;2.13;;
23123;SDS011;11731;48.592;8.858;2022-07-06T02:01:16;3.33;;;1.80;;
23123;SDS011;11731;48.592;8.858;2022-07-06T02:03:44;2.30;;;1.90;;
23123;SDS011;11731;48.592;8.858;2022-07-06T02:06:11;4.93;;;2.37;;
23123;SDS011;11731;48.592;8.858;2022-07-06T02:08:39;6.00;;;2.20;;
23123;SDS011;11731;48.592;8.858;2022-07-06T02:11:06;2.30;;;2.10;;
23123;SDS011;11731;48.592;8.858;2022-07-06T02:13:35;2.63;;;2.10;;
23123;SDS011;11731;48.592;8.858;2022-07-06T02:16:03;2.60;;;2.17;;
23123;SDS011;11731;48.592;8.858;2022-07-06T02:18:30;2.40;;;2.20;;
23123;SDS011;11731;48.592;8.858;2022-07-06T02:21:06;1.93;;;1.83;;
23123;SDS011;11731;48.592;8.858;2022-07-06T02:23:32;4.20;;;2.20;;
23123;SDS011;11731;48.592;8.858;2022-07-06T02:25:59;7.23;;;2.47;;
23123;SDS011;11731;48.592;8.858;2022-07-06T02:28:26;4.07;;;2.40;;
23123;SDS011;11731;48.592;8.858;2022-07-06T02:30:54;4.17;;;2.00;;
23123;SDS011;11731;48.592;8.858;2022-07-06T02:33:21;4.30;;;2.20;;
23123;SDS011;11731;48.592;8.858;2022-07-06T02:35:48;3.63;;;2.40;;
23123;SDS011;11731;48.592;8.858;2022-07-06T02:38:15;4.50;;;2.47;;
23123;SDS011;11731;48.592;8.858;2022-07-06T02:40:41;5.10;;;2.40;;
23123;SDS011;11731;48.592;8.858;2022-07-06T02:43:24;2.10;;;1.90;;
23123;SDS011;11731;48.592;8.858;2022-07-06T02:45:51;2.77;;;2.40;;
23123;SDS011;11731;48.592;8.858;2022-07-06T02:48:19;7.57;;;2.33;;
23123;SDS011;11731;48.592;8.858;2022-07-06T02:50:46;3.83;;;2.53;;
23123;SDS011;11731;48.592;8.858;2022-07-06T02:53:13;2.67;;;2.47;;
23123;SDS011;11731;48.592;8.858;2022-07-06T02:55:40;5.47;;;2.70;;
23123;SDS011;11731;48.592;8.858;2022-07-06T02:58:07;3.17;;;2.20;;
23123;SDS011;11731;48.592;8.858;2022-07-06T03:00:34;2.30;;;2.10;;
23123;SDS011;11731;48.592;8.858;2022-07-06T03:03:00;4.20;;;2.50;;
23123;SDS011;11731;48.592;8.858;2022-07-06T03:05:28;7.97;;;2.80;;
23123;SDS011;11731;48.592;8.858;2022-07-06T03:07:57;3.33;;;2.73;;
23123;SDS011;11731;48.592;8.858;2022-07-06T03:10:25;2.43;;;2.23;;
23123;SDS011;11731;48.592;8.858;2022-07-06T03:12:52;2.87;;;2.50;;
23123;SDS011;11731;48.592;8.858;2022-07-06T03:15:19;5.43;;;3.20;;
23123;SDS011;11731;48.592;8.858;2022-07-06T03:18:03;6.00;;;2.50;;
23123;SDS011;11731;48.592;8.858;2022-07-06T03:23:33;2.90;;;2.60;;
23123;SDS011;11731;48.592;8.858;2022-07-06T03:26:00;3.10;;;2.80;;
23123;SDS011;11731;48.592;8.858;2022-07-06T03:28:27;5.70;;;3.43;;
23123;SDS011;11731;48.592;8.858;2022-07-06T03:30:54;6.50;;;3.03;;
23123;SDS011;11731;48.592;8.858;2022-07-06T03:33:21;3.00;;;2.57;;
23123;SDS011;11731;48.592;8.858;2022-07-06T03:35:47;5.10;;;3.20;;
23123;SDS011;11731;48.592;8.858;2022-07-06T03:38:14;3.93;;;2.97;;
23123;SDS011;11731;48.592;8.858;2022-07-06T03:40:42;3.23;;;2.93;;
23123;SDS011;11731;48.592;8.858;2022-07-06T03:43:09;7.57;;;3.50;;
23123;SDS011;11731;48.592;8.858;2022-07-06T03:45:36;5.90;;;3.43;;
23123;SDS011;11731;48.592;8.858;2022-07-06T03:48:32;6.27;;;3.50;;
23123;SDS011;11731;48.592;8.858;2022-07-06T03:50:59;4.00;;;3.47;;
23123;SDS011;11731;48.592;8.858;2022-07-06T03:53:26;4.40;;;3.90;;
23123;SDS011;11731;48.592;8.858;2022-07-06T03:55:54;5.03;;;3.37;;
23123;SDS011;11731;48.592;8.858;2022-07-06T03:58:38;4.47;;;3.63;;
23123;SDS011;11731;48.592;8.858;2022-07-06T04:01:05;3.30;;;3.00;;
23123;SDS011;11731;48.592;8.858;2022-07-06T04:03:32;4.47;;;3.40;;
23123;SDS011;11731;48.592;8.858;2022-07-06T04:05:59;3.53;;;3.20;;
23123;SDS011;11731;48.592;8.858;2022-07-06T04:08:26;7.50;;;3.63;;
23123;SDS011;11731;48.592;8.858;2022-07-06T04:10:52;5.33;;;3.40;;
23123;SDS011;11731;48.592;8.858;2022-07-06T04:13:21;5.10;;;3.70;;
23123;SDS011;11731;48.592;8.858;2022-07-06T04:15:48;4.10;;;3.50;;
23123;SDS011;11731;48.592;8.858;2022-07-06T04:18:15;5.27;;;3.50;;
23123;SDS011;11731;48.592;8.858;2022-07-06T04:20:42;5.87;;;3.73;;
23123;SDS011;11731;48.592;8.858;2022-07-06T04:26:19;7.03;;;4.10;;
23123;SDS011;11731;48.592;8.858;2022-07-06T04:28:45;6.40;;;3.80;;
23123;SDS011;11731;48.592;8.858;2022-07-06T04:31:12;5.40;;;3.67;;
23123;SDS011;11731;48.592;8.858;2022-07-06T04:33:42;4.27;;;3.70;;
23123;SDS011;11731;48.592;8.858;2022-07-06T04:36:09;4.60;;;4.20;;
23123;SDS011;11731;48.592;8.858;2022-07-06T04:38:36;4.10;;;3.80;;
23123;SDS011;11731;48.592;8.858;2022-07-06T04:41:03;5.47;;;4.30;;
23123;SDS011;11731;48.592;8.858;2022-07-06T04:43:45;8.80;;;4.43;;
23123;SDS011;11731;48.592;8.858;2022-07-06T04:46:12;4.47;;;3.93;;
23123;SDS011;11731;48.592;8.858;2022-07-06T04:48:39;6.97;;;4.00;;
23123;SDS011;11731;48.592;8.858;2022-07-06T04:51:05;5.00;;;3.73;;
23123;SDS011;11731;48.592;8.858;2022-07-06T04:53:32;4.90;;;4.30;;
23123;SDS011;11731;48.592;8.858;2022-07-06T04:55:59;5.83;;;4.07;;
23123;SDS011;11731;48.592;8.858;2022-07-06T04:58:26;5.07;;;4.10;;
23123;SDS011;11731;48.592;8.858;2022-07-06T05:00:54;4.73;;;3.70;;
23123;SDS011;11731;48.592;8.858;2022-07-06T05:03:21;5.90;;;4.10;;
23123;SDS011;11731;48.592;8.858;2022-07-06T05:05:48;4.67;;;4.07;;
23123;SDS011;11731;48.592;8.858;2022-07-06T05:08:15;4.43;;;4.03;;
23123;SDS011;11731;48.592;8.858;2022-07-06T05:10:41;9.80;;;4.17;;
23123;SDS011;11731;48.592;8.858;2022-07-06T05:13:08;5.33;;;4.40;;
23123;SDS011;11731;48.592;8.858;2022-07-06T05:15:35;5.80;;;4.00;;
23123;SDS011;11731;48.592;8.858;2022-07-06T05:18:03;5.27;;;3.80;;
23123;SDS011;11731;48.592;8.858;2022-07-06T05:20:30;7.47;;;4.43;;
23123;SDS011;11731;48.592;8.858;2022-07-06T05:22:57;4.30;;;3.50;;
23123;SDS011;11731;48.592;8.858;2022-07-06T05:25:24;4.67;;;3.60;;
23123;SDS011;11731;48.592;8.858;2022-07-06T05:27:50;5.03;;;3.67;;
23123;SDS011;11731;48.592;8.858;2022-07-06T05:30:17;6.40;;;3.90;;
23123;SDS011;11731;48.592;8.858;2022-07-06T05:32:44;8.53;;;3.67;;
23123;SDS011;11731;48.592;8.858;2022-07-06T05:35:12;4.43;;;3.57;;
23123;SDS011;11731;48.592;8.858;2022-07-06T05:37:39;4.47;;;3.27;;
23123;SDS011;11731;48.592;8.858;2022-07-06T05:40:06;5.63;;;3.60;;
23123;SDS011;11731;48.592;8.858;2022-07-06T05:42:33;4.40;;;3.50;;
23123;SDS011;11731;48.592;8.858;2022-07-06T05:45:00;4.07;;;3.50;;
23123;SDS011;11731;48.592;8.858;2022-07-06T05:47:28;6.33;;;3.80;;
23123;SDS011;11731;48.592;8.858;2022-07-06T05:50:14;4.93;;;4.10;;
23123;SDS011;11731;48.592;8.858;2022-07-06T05:52:43;4.80;;;3.40;;
23123;SDS011;11731;48.592;8.858;2022-07-06T05:55:11;5.37;;;3.30;;
23123;SDS011;11731;48.592;8.858;2022-07-06T05:57:38;3.83;;;3.07;;
23123;SDS011;11731;48.592;8.858;2022-07-06T06:00:06;5.60;;;3.27;;
23123;SDS011;11731;48.592;8.858;2022-07-06T06:02:37;7.20;;;3.30;;
23123;SDS011;11731;48.592;8.858;2022-07-06T06:05:05;3.87;;;3.30;;
23123;SDS011;11731;48.592;8.858;2022-07-06T06:07:35;7.70;;;3.57;;
23123;SDS011;11731;48.592;8.858;2022-07-06T06:10:02;4.90;;;3.03;;
23123;SDS011;11731;48.592;8.858;2022-07-06T06:12:30;4.30;;;3.17;;
23123;SDS011;11731;48.592;8.858;2022-07-06T06:14:57;3.60;;;3.30;;
23123;SDS011;11731;48.592;8.858;2022-07-06T06:17:23;3.97;;;3.10;;
23123;SDS011;11731;48.592;8.858;2022-07-06T06:19:50;5.00;;;3.47;;
23123;SDS011;11731;48.592;8.858;2022-07-06T06:22:17;4.93;;;3.27;;
23123;SDS011;11731;48.592;8.858;2022-07-06T06:24:45;4.80;;;2.80;;
23123;SDS011;11731;48.592;8.858;2022-07-06T06:27:12;4.23;;;3.37;;
23123;SDS011;11731;48.592;8.858;2022-07-06T06:29:39;6.00;;;2.80;;
23123;SDS011;11731;48.592;8.858;2022-07-06T06:32:06;3.53;;;2.87;;
23123;SDS011;11731;48.592;8.858;2022-07-06T06:34:33;4.83;;;3.00;;
23123;SDS011;11731;48.592;8.858;2022-07-06T06:37:00;6.50;;;2.80;;
23123;SDS011;11731;48.592;8.858;2022-07-06T06:39:27;4.03;;;2.90;;
23123;SDS011;11731;48.592;8.858;2022-07-06T06:41:55;6.80;;;2.93;;
23123;SDS011;11731;48.592;8.858;2022-07-06T06:44:22;3.00;;;2.20;;
23123;SDS011;11731;48.592;8.858;2022-07-06T06:46:49;4.57;;;2.77;;
23123;SDS011;11731;48.592;8.858;2022-07-06T06:49:17;3.13;;;2.90;;
23123;SDS011;11731;48.592;8.858;2022-07-06T06:51:44;3.67;;;2.97;;
23123;SDS011;11731;48.592;8.858;2022-07-06T06:54:11;4.90;;;2.80;;
23123;SDS011;11731;48.592;8.858;2022-07-06T06:56:37;4.20;;;2.70;;
23123;SDS011;11731;48.592;8.858;2022-07-06T06:59:05;4.20;;;2.83;;
23123;SDS011;11731;48.592;8.858;2022-07-06T07:01:32;3.20;;;2.70;;
23123;SDS011;11731;48.592;8.858;2022-07-06T07:03:59;3.90;;;2.80;;
23123;SDS011;11731;48.592;8.858;2022-07-06T07:06:26;3.80;;;2.47;;
23123;SDS011;11731;48.592;8.858;2022-07-06T07:08:52;3.07;;;2.40;;
23123;SDS011;11731;48.592;8.858;2022-07-06T07:11:20;4.20;;;2.70;;
23123;SDS011;11731;48.592;8.858;2022-07-06T07:13:47;3.40;;;2.77;;
23123;SDS011;11731;48.592;8.858;2022-07-06T07:16:15;5.70;;;2.50;;
23123;SDS011;11731;48.592;8.858;2022-07-06T07:18:42;2.93;;;2.63;;
23123;SDS011;11731;48.592;8.858;2022-07-06T07:21:09;4.80;;;2.97;;
23123;SDS011;11731;48.592;8.858;2022-07-06T07:23:36;3.57;;;2.63;;
23123;SDS011;11731;48.592;8.858;2022-07-06T07:26:02;5.33;;;3.13;;
23123;SDS011;11731;48.592;8.858;2022-07-06T07:28:29;4.27;;;2.47;;
23123;SDS011;11731;48.592;8.858;2022-07-06T07:30:56;4.57;;;2.70;;
23123;SDS011;11731;48.592;8.858;2022-07-06T07:33:24;4.77;;;2.50;;
23123;SDS011;11731;48.592;8.858;2022-07-06T07:35:51;3.03;;;2.67;;
23123;SDS011;11731;48.592;8.858;2022-07-06T07:38:18;5.60;;;2.60;;
23123;SDS011;11731;48.592;8.858;2022-07-06T07:40:44;4.20;;;2.67;;
23123;SDS011;11731;48.592;8.858;2022-07-06T07:43:11;4.50;;;2.50;;
23123;SDS011;11731;48.592;8.858;2022-07-06T07:45:38;4.33;;;2.40;;
23123;SDS011;11731;48.592;8.858;2022-07-06T07:48:05;3.90;;;2.40;;
23123;SDS011;11731;48.592;8.858;2022-07-06T07:50:34;3.50;;;3.00;;
23123;SDS011;11731;48.592;8.858;2022-07-06T07:53:00;5.47;;;2.50;;
23123;SDS011;11731;48.592;8.858;2022-07-06T07:55:27;4.80;;;2.60;;
23123;SDS011;11731;48.592;8.858;2022-07-06T07:57:54;6.10;;;2.90;;
23123;SDS011;11731;48.592;8.858;2022-07-06T08:00:21;2.87;;;2.10;;
23123;SDS011;11731;48.592;8.858;2022-07-06T08:02:49;4.37;;;2.70;;
23123;SDS011;11731;48.592;8.858;2022-07-06T08:05:16;4.23;;;2.60;;
23123;SDS011;11731;48.592;8.858;2022-07-06T08:07:45;4.13;;;2.30;;
23123;SDS011;11731;48.592;8.858;2022-07-06T08:10:11;2.13;;;2.00;;
23123;SDS011;11731;48.592;8.858;2022-07-06T08:12:38;2.53;;;2.13;;
23123;SDS011;11731;48.592;8.858;2022-07-06T08:15:06;3.50;;;2.37;;
23123;SDS011;11731;48.592;8.858;2022-07-06T08:17:33;4.63;;;2.20;;
23123;SDS011;11731;48.592;8.858;2022-07-06T08:20:00;3.50;;;2.60;;
23123;SDS011;11731;48.592;8.858;2022-07-06T08:22:27;2.97;;;2.40;;
23123;SDS011;11731;48.592;8.858;2022-07-06T08:24:57;4.67;;;2.70;;
23123;SDS011;11731;48.592;8.858;2022-07-06T08:27:24;3.47;;;2.37;;
23123;SDS011;11731;48.592;8.858;2022-07-06T08:29:50;2.73;;;2.20;;
23123;SDS011;11731;48.592;8.858;2022-07-06T08:32:17;4.50;;;2.60;;
23123;SDS011;11731;48.592;8.858;2022-07-06T08:34:45;3.40;;;2.60;;
23123;SDS011;11731;48.592;8.858;2022-07-06T08:37:12;2.80;;;2.23;;
23123;SDS011;11731;48.592;8.858;2022-07-06T08:39:39;4.60;;;2.10;;
23123;SDS011;11731;48.592;8.858;2022-07-06T08:42:08;3.60;;;2.17;;
23123;SDS011;11731;48.592;8.858;2022-07-06T08:44:36;2.77;;;2.57;;
23123;SDS011;11731;48.592;8.858;2022-07-06T08:47:04;2.93;;;2.00;;
23123;SDS011;11731;48.592;8.858;2022-07-06T08:49:32;4.60;;;2.50;;
23123;SDS011;11731;48.592;8.858;2022-07-06T08:52:01;4.33;;;2.30;;
23123;SDS011;11731;48.592;8.858;2022-07-06T08:54:29;2.87;;;2.37;;
23123;SDS011;11731;48.592;8.858;2022-07-06T08:56:56;3.90;;;2.50;;
23123;SDS011;11731;48.592;8.858;2022-07-06T08:59:25;4.67;;;2.53;;
23123;SDS011;11731;48.592;8.858;2022-07-06T09:01:52;6.07;;;2.30;;
23123;SDS011;11731;48.592;8.858;2022-07-06T09:04:21;4.00;;;2.77;;
23123;SDS011;11731;48.592;8.858;2022-07-06T09:06:48;3.90;;;2.47;;
23123;SDS011;11731;48.592;8.858;2022-07-06T09:09:19;4.83;;;2.80;;
23123;SDS011;11731;48.592;8.858;2022-07-06T09:11:49;4.73;;;2.50;;
23123;SDS011;11731;48.592;8.858;2022-07-06T09:14:16;2.73;;;2.30;;
23123;SDS011;11731;48.592;8.858;2022-07-06T09:16:45;3.77;;;2.37;;
23123;SDS011;11731;48.592;8.858;2022-07-06T09:19:31;4.73;;;2.70;;
23123;SDS011;11731;48.592;8.858;2022-07-06T09:22:01;3.50;;;2.20;;
23123;SDS011;11731;48.592;8.858;2022-07-06T09:24:28;3.40;;;2.30;;
23123;SDS011;11731;48.592;8.858;2022-07-06T09:26:57;5.77;;;2.27;;
23123;SDS011;11731;48.592;8.858;2022-07-06T09:29:26;4.50;;;2.63;;
23123;SDS011;11731;48.592;8.858;2022-07-06T09:31:58;6.87;;;2.80;;
23123;SDS011;11731;48.592;8.858;2022-07-06T09:34:33;2.47;;;2.10;;
23123;SDS011;11731;48.592;8.858;2022-07-06T09:37:07;5.60;;;2.40;;
23123;SDS011;11731;48.592;8.858;2022-07-06T09:39:38;3.33;;;2.33;;
23123;SDS011;11731;48.592;8.858;2022-07-06T09:42:17;3.40;;;2.30;;
23123;SDS011;11731;48.592;8.858;2022-07-06T09:44:51;2.07;;;1.90;;
23123;SDS011;11731;48.592;8.858;2022-07-06T09:47:19;5.63;;;2.10;;
23123;SDS011;11731;48.592;8.858;2022-07-06T09:49:46;4.43;;;2.40;;
23123;SDS011;11731;48.592;8.858;2022-07-06T09:52:13;5.90;;;2.50;;
23123;SDS011;11731;48.592;8.858;2022-07-06T09:54:40;2.20;;;1.80;;
23123;SDS011;11731;48.592;8.858;2022-07-06T09:57:07;2.40;;;2.10;;
23123;SDS011;11731;48.592;8.858;2022-07-06T09:59:34;3.17;;;2.30;;
23123;SDS011;11731;48.592;8.858;2022-07-06T10:02:02;2.67;;;2.30;;
23123;SDS011;11731;48.592;8.858;2022-07-06T10:04:32;3.60;;;2.00;;
23123;SDS011;11731;48.592;8.858;2022-07-06T10:06:59;3.27;;;2.30;;
23123;SDS011;11731;48.592;8.858;2022-07-06T10:09:27;3.60;;;2.20;;
23123;SDS011;11731;48.592;8.858;2022-07-06T10:11:55;2.53;;;2.13;;
23123;SDS011;11731;48.592;8.858;2022-07-06T10:14:24;4.77;;;2.20;;
23123;SDS011;11731;48.592;8.858;2022-07-06T10:16:55;4.00;;;2.17;;
23123;SDS011;11731;48.592;8.858;2022-07-06T10:19:26;5.80;;;2.30;;
23123;SDS011;11731;48.592;8.858;2022-07-06T10:21:55;3.90;;;2.30;;
23123;SDS011;11731;48.592;8.858;2022-07-06T10:24:24;2.37;;;2.17;;
23123;SDS011;11731;48.592;8.858;2022-07-06T10:26:53;4.10;;;2.50;;
23123;SDS011;11731;48.592;8.858;2022-07-06T10:29:23;6.07;;;2.23;;
23123;SDS011;11731;48.592;8.858;2022-07-06T10:32:17;4.50;;;2.50;;
23123;SDS011;11731;48.592;8.858;2022-07-06T10:34:45;5.30;;;2.40;;
23123;SDS011;11731;48.592;8.858;2022-07-06T10:37:22;2.50;;;2.20;;
23123;SDS011;11731;48.592;8.858;2022-07-06T10:39:49;5.00;;;2.70;;
23123;SDS011;11731;48.592;8.858;2022-07-06T10:42:38;9.47;;;2.40;;
23123;SDS011;11731;48.592;8.858;2022-07-06T10:45:07;7.07;;;2.33;;
23123;SDS011;11731;48.592;8.858;2022-07-06T10:47:41;5.23;;;2.60;;
23123;SDS011;11731;48.592;8.858;2022-07-06T10:50:12;3.13;;;2.83;;
23123;SDS011;11731;48.592;8.858;2022-07-06T10:52:53;5.13;;;3.00;;
23123;SDS011;11731;48.592;8.858;2022-07-06T10:55:28;4.10;;;2.83;;
23123;SDS011;11731;48.592;8.858;2022-07-06T10:57:56;6.37;;;3.10;;
23123;SDS011;11731;48.592;8.858;2022-07-06T11:01:15;4.63;;;2.80;;
23123;SDS011;11731;48.592;8.858;2022-07-06T11:04:06;2.97;;;2.50;;
23123;SDS011;11731;48.592;8.858;2022-07-06T11:06:35;4.57;;;2.60;;
23123;SDS011;11731;48.592;8.858;2022-07-06T11:09:05;4.20;;;2.70;;
23123;SDS011;11731;48.592;8.858;2022-07-06T11:11:41;5.33;;;2.73;;
23123;SDS011;11731;48.592;8.858;2022-07-06T11:14:11;3.20;;;2.37;;
23123;SDS011;11731;48.592;8.858;2022-07-06T11:16:40;3.13;;;2.63;;
23123;SDS011;11731;48.592;8.858;2022-07-06T11:19:27;4.80;;;2.60;;
23123;SDS011;11731;48.592;8.858;2022-07-06T11:21:54;5.93;;;2.80;;
23123;SDS011;11731;48.592;8.858;2022-07-06T11:24:26;3.70;;;2.80;;
23123;SDS011;11731;48.592;8.858;2022-07-06T11:26:54;3.40;;;2.60;;
23123;SDS011;11731;48.592;8.858;2022-07-06T11:29:23;4.10;;;2.73;;
23123;SDS011;11731;48.592;8.858;2022-07-06T11:31:52;3.73;;;2.90;;
23123;SDS011;11731;48.592;8.858;2022-07-06T11:34:21;3.97;;;2.67;;
23123;SDS011;11731;48.592;8.858;2022-07-06T11:36:53;3.50;;;2.67;;
23123;SDS011;11731;48.592;8.858;2022-07-06T11:39:21;7.37;;;3.50;;
23123;SDS011;11731;48.592;8.858;2022-07-06T11:41:49;6.20;;;3.20;;
23123;SDS011;11731;48.592;8.858;2022-07-06T11:44:16;3.77;;;3.10;;
23123;SDS011;11731;48.592;8.858;2022-07-06T11:46:43;4.83;;;2.97;;
23123;SDS011;11731;48.592;8.858;2022-07-06T11:49:12;3.80;;;2.80;;
23123;SDS011;11731;48.592;8.858;2022-07-06T11:51:40;6.27;;;2.90;;
23123;SDS011;11731;48.592;8.858;2022-07-06T11:54:09;3.33;;;3.00;;
23123;SDS011;11731;48.592;8.858;2022-07-06T11:56:37;4.17;;;2.80;;
23123;SDS011;11731;48.592;8.858;2022-07-06T11:59:05;5.27;;;2.77;;
23123;SDS011;11731;48.592;8.858;2022-07-06T12:01:33;3.20;;;2.90;;
23123;SDS011;11731;48.592;8.858;2022-07-06T12:04:01;4.40;;;3.03;;
23123;SDS011;11731;48.592;8.858;2022-07-06T12:06:32;8.70;;;3.30;;
23123;SDS011;11731;48.592;8.858;2022-07-06T12:09:15;4.33;;;2.83;;
23123;SDS011;11731;48.592;8.858;2022-07-06T12:11:46;5.10;;;2.73;;
23123;SDS011;11731;48.592;8.858;2022-07-06T12:14:15;8.80;;;3.23;;
23123;SDS011;11731;48.592;8.858;2022-07-06T12:17:02;3.33;;;2.50;;
23123;SDS011;11731;48.592;8.858;2022-07-06T12:19:45;6.70;;;2.63;;
23123;SDS011;11731;48.592;8.858;2022-07-06T12:22:24;5.57;;;2.50;;
23123;SDS011;11731;48.592;8.858;2022-07-06T12:24:51;4.60;;;2.93;;
23123;SDS011;11731;48.592;8.858;2022-07-06T12:27:18;2.87;;;2.63;;
23123;SDS011;11731;48.592;8.858;2022-07-06T12:29:50;3.63;;;2.40;;
23123;SDS011;11731;48.592;8.858;2022-07-06T12:32:33;6.57;;;2.67;;
23123;SDS011;11731;48.592;8.858;2022-07-06T12:35:21;3.80;;;2.70;;
23123;SDS011;11731;48.592;8.858;2022-07-06T12:37:55;4.23;;;2.53;;
23123;SDS011;11731;48.592;8.858;2022-07-06T12:40:25;5.77;;;2.50;;
23123;SDS011;11731;48.592;8.858;2022-07-06T12:43:09;4.43;;;2.73;;
23123;SDS011;11731;48.592;8.858;2022-07-06T12:49:24;3.43;;;2.83;;
23123;SDS011;11731;48.592;8.858;2022-07-06T12:52:08;3.07;;;2.70;;
23123;SDS011;11731;48.592;8.858;2022-07-06T12:54:40;4.03;;;2.60;;
23123;SDS011;11731;48.592;8.858;2022-07-06T12:57:11;2.97;;;2.63;;
23123;SDS011;11731;48.592;8.858;2022-07-06T12:59:41;6.17;;;2.70;;
23123;SDS011;11731;48.592;8.858;2022-07-06T13:02:16;4.23;;;2.80;;
23123;SDS011;11731;48.592;8.858;2022-07-06T13:04:53;4.37;;;2.77;;
23123;SDS011;11731;48.592;8.858;2022-07-06T13:07:27;5.30;;;2.63;;
23123;SDS011;11731;48.592;8.858;2022-07-06T13:09:57;3.20;;;2.43;;
23123;SDS011;11731;48.592;8.858;2022-07-06T13:12:24;4.80;;;2.70;;
23123;SDS011;11731;48.592;8.858;2022-07-06T13:15:00;8.67;;;2.90;;
23123;SDS011;11731;48.592;8.858;2022-07-06T13:17:46;4.03;;;2.47;;
23123;SDS011;11731;48.592;8.858;2022-07-06T13:20:13;7.33;;;3.00;;
23123;SDS011;11731;48.592;8.858;2022-07-06T13:22:43;3.10;;;2.57;;
23123;SDS011;11731;48.592;8.858;2022-07-06T13:26:21;4.03;;;2.60;;
23123;SDS011;11731;48.592;8.858;2022-07-06T13:28:39;5.47;;;2.37;;
23123;SDS011;11731;48.592;8.858;2022-07-06T13:31:07;5.30;;;2.50;;
23123;SDS011;11731;48.592;8.858;2022-07-06T13:33:36;2.50;;;2.10;;
23123;SDS011;11731;48.592;8.858;2022-07-06T13:36:02;2.10;;;2.00;;
23123;SDS011;11731;48.592;8.858;2022-07-06T13:38:30;3.87;;;2.57;;
23123;SDS011;11731;48.592;8.858;2022-07-06T13:40:56;2.70;;;2.13;;
23123;SDS011;11731;48.592;8.858;2022-07-06T13:43:33;3.70;;;2.30;;
23123;SDS011;11731;48.592;8.858;2022-07-06T13:46:14;5.87;;;2.30;;
23123;SDS011;11731;48.592;8.858;2022-07-06T13:51:25;2.77;;;1.90;;
23123;SDS011;11731;48.592;8.858;2022-07-06T13:53:53;2.23;;;2.10;;
23123;SDS011;11731;48.592;8.858;2022-07-06T13:56:20;3.43;;;2.00;;
23123;SDS011;11731;48.592;8.858;2022-07-06T13:58:47;2.93;;;2.20;;
23123;SDS011;11731;48.592;8.858;2022-07-06T14:01:14;5.23;;;2.57;;
23123;SDS011;11731;48.592;8.858;2022-07-06T14:03:41;4.00;;;2.30;;
23123;SDS011;11731;48.592;8.858;2022-07-06T14:06:09;5.10;;;2.10;;
23123;SDS011;11731;48.592;8.858;2022-07-06T14:09:17;5.67;;;2.00;;
23123;SDS011;11731;48.592;8.858;2022-07-06T14:14:19;4.07;;;2.00;;
23123;SDS011;11731;48.592;8.858;2022-07-06T14:16:46;4.83;;;2.27;;
23123;SDS011;11731;48.592;8.858;2022-07-06T14:19:12;4.20;;;2.30;;
23123;SDS011;11731;48.592;8.858;2022-07-06T14:24:42;2.33;;;2.13;;
23123;SDS011;11731;48.592;8.858;2022-07-06T14:27:41;2.10;;;1.90;;
23123;SDS011;11731;48.592;8.858;2022-07-06T14:30:11;3.23;;;2.00;;
23123;SDS011;11731;48.592;8.858;2022-07-06T14:32:38;2.73;;;2.40;;
23123;SDS011;11731;48.592;8.858;2022-07-06T14:35:15;2.63;;;2.10;;
23123;SDS011;11731;48.592;8.858;2022-07-06T14:37:42;5.33;;;1.90;;
23123;SDS011;11731;48.592;8.858;2022-07-06T14:43:07;4.30;;;1.93;;
23123;SDS011;11731;48.592;8.858;2022-07-06T14:45:35;2.37;;;2.00;;
23123;SDS011;11731;48.592;8.858;2022-07-06T14:48:02;3.77;;;2.20;;
23123;SDS011;11731;48.592;8.858;2022-07-06T14:50:30;2.43;;;2.17;;
23123;SDS011;11731;48.592;8.858;2022-07-06T14:53:03;4.93;;;1.90;;
23123;SDS011;11731;48.592;8.858;2022-07-06T14:55:46;2.20;;;1.80;;
23123;SDS011;11731;48.592;8.858;2022-07-06T14:58:29;3.27;;;2.00;;
23123;SDS011;11731;48.592;8.858;2022-07-06T15:00:56;2.30;;;1.80;;
23123;SDS011;11731;48.592;8.858;2022-07-06T15:03:23;2.60;;;2.00;;
23123;SDS011;11731;48.592;8.858;2022-07-06T15:07:25;2.23;;;2.03;;
23123;SDS011;11731;48.592;8.858;2022-07-06T15:09:02;3.07;;;2.63;;
23123;SDS011;11731;48.592;8.858;2022-07-06T15:11:31;2.23;;;1.53;;
23123;SDS011;11731;48.592;8.858;2022-07-06T15:14:12;4.07;;;1.80;;
23123;SDS011;11731;48.592;8.858;2022-07-06T15:16:41;3.67;;;2.00;;
23123;SDS011;11731;48.592;8.858;2022-07-06T15:19:32;2.70;;;1.70;;
23123;SDS011;11731;48.592;8.858;2022-07-06T15:21:59;3.87;;;1.93;;
23123;SDS011;11731;48.592;8.858;2022-07-06T15:24:26;2.07;;;1.77;;
23123;SDS011;11731;48.592;8.858;2022-07-06T15:27:23;2.30;;;1.60;;